Terminal Aerodrome Forecast
Issued by NWS Northern Indiana

Home | Current Version | Previous Version | Text Only | Print | Product List | Glossary On
Versions: 1 2 3 4 5 6 7 8 9 10 11 12 13
000
FTUS43 KIWX 271700
TAFFWA
TAF
KFWA 271720Z 2718/2818 25015G23KT P6SM VCTS BKN035CB
      TEMPO 2718/2721 5SM -TSRA OVC030CB
     FM272100 26014KT P6SM VCSH BKN030
     FM280000 29007KT P6SM SCT050
     FM280600 VRB02KT 5SM BR SKC
     FM281200 13004KT P6SM FEW050=

USA.gov is the U.S. government's official web portal to all federal, state and local government web resources and services.